Time;durP1;ratioP1;P1;durP2;ratioP2;P2;SDS_P1;SDS_P2;PMS_P1;PMS_P2;Temp;Humidity;BMP_temperature;BMP_pressure;BME280_temperature;BME280_humidity;BME280_pressure;Samples;Min_cycle;Max_cycle;Signal;HPM_P1;HPM_P2
2021/10/17 00:01:44;;;;;;;50.10;45.50;;;6.90;99.90;;;;;;5034135;28;20847;-76
2021/10/17 00:04:10;;;;;;;50.50;45.43;;;6.80;99.90;;;;;;5034512;28;20451;-82
2021/10/17 00:06:37;;;;;;;51.37;46.90;;;6.90;99.90;;;;;;5034476;28;20481;-82
2021/10/17 00:09:04;;;;;;;48.40;43.97;;;6.80;99.90;;;;;;5034609;28;20532;-84
2021/10/17 00:11:31;;;;;;;49.77;45.00;;;6.80;99.90;;;;;;5034110;28;20456;-84
2021/10/17 00:13:57;;;;;;;49.63;44.80;;;6.80;99.90;;;;;;5034023;28;20457;-83
2021/10/17 00:16:24;;;;;;;48.50;44.30;;;6.80;99.90;;;;;;5034263;28;20460;-83
2021/10/17 00:18:52;;;;;;;47.60;43.53;;;6.80;99.90;;;;;;5034007;28;20449;-83
2021/10/17 00:21:20;;;;;;;49.20;44.97;;;6.70;99.90;;;;;;5033928;28;20487;-74
2021/10/17 00:23:46;;;;;;;48.67;44.13;;;6.70;99.90;;;;;;5033865;28;20449;-76
2021/10/17 00:26:13;;;;;;;52.27;47.27;;;6.70;99.90;;;;;;5033730;28;20503;-75
2021/10/17 00:28:40;;;;;;;51.10;46.37;;;6.60;99.90;;;;;;5033817;28;20452;-76
2021/10/17 00:31:06;;;;;;;51.57;46.67;;;6.70;99.90;;;;;;5033818;28;20804;-77
2021/10/17 00:33:33;;;;;;;48.90;44.80;;;6.60;99.90;;;;;;5033861;28;20447;-78
2021/10/17 00:36:01;;;;;;;51.00;46.10;;;6.60;99.90;;;;;;5033790;28;20456;-76
2021/10/17 00:38:28;;;;;;;48.53;44.07;;;6.60;99.90;;;;;;5033566;28;20485;-75
2021/10/17 00:40:55;;;;;;;48.13;43.70;;;6.60;99.90;;;;;;5033674;28;20482;-74
2021/10/17 00:43:22;;;;;;;47.90;43.50;;;6.60;99.90;;;;;;5033760;28;20464;-76
2021/10/17 00:45:49;;;;;;;48.27;43.63;;;6.60;99.90;;;;;;5034120;28;20838;-75
2021/10/17 00:48:16;;;;;;;50.27;45.30;;;6.50;99.90;;;;;;5029980;28;20481;-75
2021/10/17 00:50:43;;;;;;;50.60;45.77;;;6.50;99.90;;;;;;5033561;28;20457;-75
2021/10/17 00:53:11;;;;;;;49.23;44.60;;;6.50;99.90;;;;;;5033729;28;20483;-75
2021/10/17 00:55:37;;;;;;;49.03;44.90;;;6.50;99.90;;;;;;5033299;28;20445;-74
2021/10/17 00:58:04;;;;;;;48.80;44.37;;;6.50;99.90;;;;;;5033624;28;20449;-76
2021/10/17 01:00:31;;;;;;;48.60;44.20;;;6.50;99.90;;;;;;5033543;28;20454;-76
2021/10/17 01:02:58;;;;;;;48.90;44.37;;;6.50;99.90;;;;;;5034001;28;20456;-77
2021/10/17 01:05:25;;;;;;;46.57;42.47;;;6.50;99.90;;;;;;5035122;28;20449;-77
2021/10/17 01:07:51;;;;;;;48.77;44.00;;;6.60;99.90;;;;;;5035520;28;20836;-78
2021/10/17 01:10:20;;;;;;;45.60;41.70;;;6.60;99.90;;;;;;5033762;28;20459;-78
2021/10/17 01:12:47;;;;;;;47.77;43.07;;;6.60;99.90;;;;;;5033859;28;20457;-79
2021/10/17 01:15:13;;;;;;;48.93;44.30;;;6.50;99.90;;;;;;5033349;28;20455;-79
2021/10/17 01:17:40;;;;;;;53.53;44.47;;;6.50;99.90;;;;;;5033517;28;20459;-79
2021/10/17 01:20:10;;;;;;;48.30;43.90;;;6.50;99.90;;;;;;5033221;28;20475;-79
2021/10/17 01:22:38;;;;;;;45.43;41.57;;;6.60;99.90;;;;;;5033760;28;20457;-80
2021/10/17 01:25:06;;;;;;;47.93;43.87;;;6.60;99.90;;;;;;5033587;28;20943;-81
2021/10/17 01:27:32;;;;;;;43.80;39.70;;;6.60;99.90;;;;;;5033302;28;20498;-81
2021/10/17 01:30:00;;;;;;;45.47;41.17;;;6.60;99.90;;;;;;5033165;28;20446;-81
2021/10/17 01:32:26;;;;;;;47.00;42.77;;;6.60;99.90;;;;;;5033272;28;20453;-82
2021/10/17 01:34:53;;;;;;;46.87;42.77;;;6.60;99.90;;;;;;5033135;28;20452;-79
2021/10/17 01:37:21;;;;;;;47.97;43.57;;;6.60;99.90;;;;;;5033440;28;20448;-77
2021/10/17 01:39:48;;;;;;;47.40;43.37;;;6.60;99.90;;;;;;5033085;28;20491;-78
2021/10/17 01:42:15;;;;;;;48.63;44.33;;;6.60;99.90;;;;;;5033174;28;20458;-78
2021/10/17 01:44:41;;;;;;;48.13;43.60;;;6.60;99.90;;;;;;5033211;28;20464;-77
2021/10/17 01:47:09;;;;;;;51.30;43.60;;;6.60;99.90;;;;;;5033410;28;20489;-76
2021/10/17 01:49:36;;;;;;;48.47;43.97;;;6.60;99.90;;;;;;5033401;28;20861;-77
2021/10/17 01:52:04;;;;;;;48.43;44.07;;;6.60;99.90;;;;;;5033090;28;20446;-77
2021/10/17 01:54:32;;;;;;;48.07;43.50;;;6.50;99.90;;;;;;5032758;28;20455;-78
2021/10/17 01:56:59;;;;;;;49.57;45.13;;;6.50;99.90;;;;;;5032771;28;20479;-79
2021/10/17 01:59:26;;;;;;;48.93;44.70;;;6.50;99.90;;;;;;5032383;28;20450;-77
2021/10/17 02:01:53;;;;;;;50.00;45.57;;;6.50;99.90;;;;;;5031916;28;21009;-78
2021/10/17 02:04:19;;;;;;;48.87;44.53;;;6.50;99.90;;;;;;5032462;28;20807;-78
2021/10/17 02:06:46;;;;;;;48.50;44.00;;;6.50;99.90;;;;;;5031934;28;20486;-79
2021/10/17 02:09:13;;;;;;;48.07;44.03;;;6.50;99.90;;;;;;5031241;28;20468;-77
2021/10/17 02:11:41;;;;;;;47.60;42.93;;;6.50;99.90;;;;;;5031742;28;20969;-78
2021/10/17 02:14:08;;;;;;;47.83;43.20;;;6.50;99.90;;;;;;5032145;28;20459;-80
2021/10/17 02:16:34;;;;;;;47.60;43.60;;;6.50;99.90;;;;;;5031947;28;20946;-80
2021/10/17 02:19:01;;;;;;;50.67;45.93;;;6.60;99.90;;;;;;5031539;28;20967;-80
2021/10/17 02:21:28;;;;;;;51.53;47.13;;;6.60;99.90;;;;;;5031640;28;20479;-80
2021/10/17 02:23:55;;;;;;;46.87;42.83;;;6.60;99.90;;;;;;5031911;28;20456;-80
2021/10/17 02:26:21;;;;;;;48.87;44.50;;;6.60;99.90;;;;;;5031797;28;20460;-80
2021/10/17 02:28:50;;;;;;;49.70;45.30;;;6.60;99.90;;;;;;5031594;28;21010;-80
2021/10/17 02:31:16;;;;;;;49.53;44.93;;;6.60;99.90;;;;;;5031673;28;20452;-82
2021/10/17 02:33:43;;;;;;;49.47;45.07;;;6.50;99.90;;;;;;5031474;28;20459;-84
2021/10/17 02:36:10;;;;;;;50.97;46.27;;;6.50;99.90;;;;;;5031859;28;20447;-83
2021/10/17 02:38:37;;;;;;;49.93;44.80;;;6.50;99.90;;;;;;5031357;28;21020;-79
2021/10/17 02:41:04;;;;;;;49.87;45.20;;;6.50;99.90;;;;;;5032044;28;20455;-87
2021/10/17 02:43:30;;;;;;;52.60;47.47;;;6.50;99.90;;;;;;5031993;28;20455;-83
2021/10/17 02:45:58;;;;;;;49.67;45.10;;;6.50;99.90;;;;;;5031258;28;20456;-79
2021/10/17 02:48:25;;;;;;;53.13;48.20;;;6.50;99.90;;;;;;5031280;28;20816;-80
2021/10/17 02:50:52;;;;;;;50.30;45.90;;;6.50;99.90;;;;;;5031436;28;20451;-82
2021/10/17 02:53:19;;;;;;;51.13;46.47;;;6.60;99.90;;;;;;5031386;28;20459;-82
2021/10/17 02:55:45;;;;;;;50.90;46.50;;;6.60;99.90;;;;;;5031419;28;20458;-83
2021/10/17 02:58:12;;;;;;;52.50;47.90;;;6.60;99.90;;;;;;5031075;28;20867;-80
2021/10/17 03:00:39;;;;;;;51.47;47.20;;;6.70;99.90;;;;;;5031222;28;20453;-79
2021/10/17 03:03:07;;;;;;;54.37;48.80;;;6.60;99.90;;;;;;5031618;28;20456;-80
2021/10/17 03:05:33;;;;;;;51.97;47.53;;;6.60;99.90;;;;;;5031494;28;20809;-79
2021/10/17 03:08:00;;;;;;;48.30;44.00;;;6.60;99.90;;;;;;5031148;28;20479;-79
2021/10/17 03:10:27;;;;;;;50.73;46.27;;;6.60;99.90;;;;;;5031085;28;20455;-80
2021/10/17 03:12:54;;;;;;;49.97;45.37;;;6.60;99.90;;;;;;5031095;28;21056;-80
2021/10/17 03:15:20;;;;;;;52.27;47.67;;;6.60;99.90;;;;;;5031218;28;20459;-81
2021/10/17 03:17:48;;;;;;;53.50;48.80;;;6.60;99.90;;;;;;5031045;28;20456;-81
2021/10/17 03:20:17;;;;;;;49.53;44.90;;;6.60;99.90;;;;;;5030898;28;20496;-81
2021/10/17 03:22:43;;;;;;;49.77;45.47;;;6.70;99.90;;;;;;5031132;28;20456;-81
2021/10/17 03:25:10;;;;;;;51.87;46.90;;;6.70;99.90;;;;;;5031020;28;20457;-80
2021/10/17 03:27:37;;;;;;;49.03;44.50;;;6.70;99.90;;;;;;5031173;28;20535;-80
2021/10/17 03:30:04;;;;;;;50.13;45.67;;;6.70;99.90;;;;;;5031115;28;20457;-79
2021/10/17 03:32:31;;;;;;;49.37;44.17;;;6.70;99.90;;;;;;5032357;28;20456;-81
2021/10/17 03:34:58;;;;;;;50.77;46.13;;;6.70;99.90;;;;;;5034854;28;20461;-83
2021/10/17 03:37:26;;;;;;;49.20;44.70;;;6.70;99.90;;;;;;5035247;28;20449;-82
2021/10/17 03:39:52;;;;;;;52.70;47.60;;;6.80;99.90;;;;;;5034554;28;20905;-82
2021/10/17 03:42:19;;;;;;;51.47;46.60;;;6.80;99.90;;;;;;5034851;28;20958;-82
2021/10/17 03:44:46;;;;;;;49.47;45.03;;;6.80;99.90;;;;;;5034935;28;20475;-82
2021/10/17 03:47:12;;;;;;;50.50;45.80;;;6.80;99.90;;;;;;5034748;28;20500;-81
2021/10/17 03:49:40;;;;;;;48.17;43.97;;;6.80;99.90;;;;;;5034697;28;20456;-81
2021/10/17 03:52:07;;;;;;;47.73;43.53;;;6.90;99.90;;;;;;5034599;28;20448;-82
2021/10/17 03:54:35;;;;;;;48.47;44.07;;;6.90;99.90;;;;;;5034808;28;20456;-80
2021/10/17 03:57:02;;;;;;;50.73;46.27;;;7.00;99.90;;;;;;5034636;28;20448;-82
2021/10/17 03:59:28;;;;;;;51.93;47.33;;;7.00;99.90;;;;;;5034473;28;20461;-82
2021/10/17 04:01:55;;;;;;;51.17;46.37;;;6.90;99.90;;;;;;5034433;28;20449;-81
2021/10/17 04:04:22;;;;;;;52.10;47.10;;;6.90;99.90;;;;;;5034333;28;20453;-81
2021/10/17 04:06:48;;;;;;;48.27;43.63;;;6.90;99.90;;;;;;5034433;28;20448;-82
2021/10/17 04:09:15;;;;;;;47.23;43.07;;;6.90;99.90;;;;;;5034147;28;20495;-80
2021/10/17 04:11:46;;;;;;;47.77;43.30;;;6.80;99.90;;;;;;5034234;28;20452;-79
2021/10/17 04:14:13;;;;;;;49.03;44.73;;;6.80;99.90;;;;;;5034224;28;20456;-80
2021/10/17 04:16:40;;;;;;;48.23;44.03;;;6.80;99.90;;;;;;5034119;28;20463;-81
2021/10/17 04:19:06;;;;;;;48.13;43.70;;;6.80;99.90;;;;;;5034324;28;20444;-81
2021/10/17 04:21:33;;;;;;;49.07;44.77;;;6.80;99.90;;;;;;5034228;28;20482;-80
2021/10/17 04:24:00;;;;;;;49.33;44.37;;;6.80;99.90;;;;;;5034070;28;20460;-80
2021/10/17 04:26:27;;;;;;;47.47;43.30;;;6.80;99.90;;;;;;5034017;28;21127;-84
2021/10/17 04:28:55;;;;;;;51.53;46.83;;;6.90;99.90;;;;;;5034191;28;20493;-81
2021/10/17 04:31:21;;;;;;;49.13;44.93;;;6.90;99.90;;;;;;5033889;28;20942;-79
2021/10/17 04:33:48;;;;;;;51.17;46.47;;;6.90;99.90;;;;;;5033887;28;20865;-79
2021/10/17 04:36:15;;;;;;;49.37;45.17;;;7.00;99.90;;;;;;5033850;28;20456;-82
2021/10/17 04:38:42;;;;;;;51.30;46.47;;;7.00;99.90;;;;;;5033947;28;21133;-82
2021/10/17 04:41:08;;;;;;;48.20;43.80;;;7.00;99.90;;;;;;5033726;28;20457;-82
2021/10/17 04:43:36;;;;;;;47.73;43.53;;;7.00;99.90;;;;;;5032525;28;20456;-80
2021/10/17 04:46:04;;;;;;;45.77;41.47;;;7.00;99.90;;;;;;5033716;28;20464;-78
2021/10/17 04:48:30;;;;;;;47.20;42.90;;;6.90;99.90;;;;;;5033564;28;20843;-78
2021/10/17 04:50:57;;;;;;;51.63;47.03;;;6.90;99.90;;;;;;5033519;28;20453;-79
2021/10/17 04:53:24;;;;;;;47.37;43.00;;;6.90;99.90;;;;;;5033361;28;20455;-79
2021/10/17 04:55:50;;;;;;;48.50;44.50;;;6.90;99.90;;;;;;5033729;28;20449;-79
2021/10/17 04:58:17;;;;;;;45.93;41.70;;;6.90;99.90;;;;;;5033314;28;20444;-79
2021/10/17 05:00:44;;;;;;;47.57;43.60;;;6.90;99.90;;;;;;5033429;28;20453;-79
2021/10/17 05:03:12;;;;;;;48.50;44.10;;;6.90;99.90;;;;;;5033157;28;20495;-81
2021/10/17 05:05:41;;;;;;;47.90;43.63;;;6.90;99.90;;;;;;5033439;28;20522;-80
2021/10/17 05:08:07;;;;;;;44.23;40.33;;;6.90;99.90;;;;;;5033087;28;20491;-81
2021/10/17 05:10:34;;;;;;;44.10;39.87;;;6.90;99.90;;;;;;5033428;28;20455;-79
2021/10/17 05:13:01;;;;;;;46.03;42.00;;;6.90;99.90;;;;;;5033239;28;20452;-79
2021/10/17 05:15:27;;;;;;;46.60;42.80;;;6.90;99.90;;;;;;5033199;28;20455;-79
2021/10/17 05:17:54;;;;;;;42.70;39.20;;;6.90;99.90;;;;;;5032878;28;20845;-81
2021/10/17 05:20:22;;;;;;;46.13;41.10;;;6.90;99.90;;;;;;5033176;28;20475;-84
2021/10/17 05:22:49;;;;;;;48.33;43.93;;;7.00;99.90;;;;;;5033277;28;20503;-80
2021/10/17 05:25:15;;;;;;;45.70;41.70;;;6.90;99.90;;;;;;5033047;28;20448;-79
2021/10/17 05:27:42;;;;;;;45.53;41.57;;;6.90;99.90;;;;;;5032753;28;20484;-79
2021/10/17 05:30:10;;;;;;;47.07;42.80;;;6.90;99.90;;;;;;5032711;28;20452;-82
2021/10/17 05:32:37;;;;;;;43.70;40.17;;;7.00;99.90;;;;;;5032961;28;20507;-86
2021/10/17 05:35:04;;;;;;;46.23;42.23;;;7.00;99.90;;;;;;5032737;28;20457;-85
2021/10/17 05:37:32;;;;;;;45.07;41.27;;;7.00;99.90;;;;;;5032583;28;20453;-81
2021/10/17 05:39:58;;;;;;;44.83;40.83;;;7.00;99.90;;;;;;5032198;28;21224;-81
2021/10/17 05:42:25;;;;;;;46.97;42.80;;;7.00;99.90;;;;;;5032456;28;20460;-81
2021/10/17 05:44:52;;;;;;;45.13;41.13;;;7.10;99.90;;;;;;5033347;28;20652;-80
2021/10/17 05:47:18;;;;;;;45.53;41.47;;;7.10;99.90;;;;;;5036122;28;20460;-80
2021/10/17 05:49:45;;;;;;;45.60;41.80;;;7.00;99.90;;;;;;5037714;28;20488;-80
2021/10/17 05:52:12;;;;;;;47.03;43.03;;;7.10;99.90;;;;;;5034007;28;20457;-78
2021/10/17 05:54:40;;;;;;;46.07;42.03;;;7.10;99.90;;;;;;5031936;28;20453;-78
2021/10/17 05:57:07;;;;;;;46.57;42.47;;;7.10;99.90;;;;;;5032538;28;20495;-77
2021/10/17 05:59:34;;;;;;;43.93;40.13;;;7.10;99.90;;;;;;5032404;28;20456;-78
2021/10/17 06:02:01;;;;;;;45.67;41.77;;;7.00;99.90;;;;;;5032367;28;20460;-79
2021/10/17 06:04:28;;;;;;;43.17;39.60;;;7.10;99.90;;;;;;5032102;28;20453;-78
2021/10/17 06:06:54;;;;;;;47.50;43.70;;;7.10;99.90;;;;;;5031836;28;20825;-79
2021/10/17 06:09:21;;;;;;;47.50;43.33;;;7.00;99.90;;;;;;5032000;28;20488;-79
2021/10/17 06:11:49;;;;;;;47.00;43.10;;;7.00;99.90;;;;;;5032509;28;20460;-79
2021/10/17 06:14:16;;;;;;;47.43;43.27;;;7.10;99.90;;;;;;5032529;28;20502;-78
2021/10/17 06:16:43;;;;;;;44.50;40.40;;;7.20;99.90;;;;;;5032482;28;20452;-82
2021/10/17 06:19:09;;;;;;;44.73;41.17;;;7.30;99.90;;;;;;5032143;28;20445;-84
2021/10/17 06:21:36;;;;;;;45.00;41.30;;;7.30;99.90;;;;;;5032342;28;20469;-83
2021/10/17 06:24:03;;;;;;;42.37;39.00;;;7.40;99.90;;;;;;5032134;28;20464;-79
2021/10/17 06:26:29;;;;;;;39.87;36.60;;;7.50;99.90;;;;;;5032016;28;20452;-79
2021/10/17 06:28:57;;;;;;;39.20;36.33;;;7.50;99.90;;;;;;5031836;28;20496;-81
2021/10/17 06:31:24;;;;;;;41.37;38.27;;;7.60;99.90;;;;;;5031741;28;20834;-80
2021/10/17 06:33:51;;;;;;;40.03;36.93;;;7.60;99.90;;;;;;5031873;28;20452;-80
2021/10/17 06:36:18;;;;;;;40.07;36.90;;;7.60;99.90;;;;;;5031807;28;20452;-79
2021/10/17 06:38:45;;;;;;;38.03;35.23;;;7.80;99.90;;;;;;5031417;28;20479;-79
2021/10/17 06:41:12;;;;;;;40.20;37.30;;;7.80;99.90;;;;;;5031439;28;20453;-79
2021/10/17 06:43:38;;;;;;;39.13;36.23;;;7.90;99.90;;;;;;5031143;28;20456;-80
2021/10/17 06:46:06;;;;;;;41.27;38.37;;;8.00;99.90;;;;;;5031169;28;20445;-80
2021/10/17 06:48:34;;;;;;;38.67;36.10;;;7.80;99.90;;;;;;5031216;28;20492;-79
2021/10/17 06:51:01;;;;;;;40.77;37.60;;;7.80;99.90;;;;;;5031397;28;20461;-80
2021/10/17 06:53:28;;;;;;;38.50;35.70;;;8.00;99.90;;;;;;5031199;28;20453;-79
2021/10/17 06:55:54;;;;;;;38.57;35.77;;;8.10;99.90;;;;;;5031320;28;20511;-77
2021/10/17 06:58:21;;;;;;;39.57;36.70;;;8.20;99.90;;;;;;5030256;28;20441;-77
2021/10/17 07:00:47;;;;;;;37.80;35.17;;;8.20;99.90;;;;;;5029972;28;20453;-78
2021/10/17 07:03:16;;;;;;;38.23;35.53;;;8.30;99.90;;;;;;5029673;28;20452;-79
2021/10/17 07:05:43;;;;;;;36.20;33.90;;;8.30;99.90;;;;;;5027689;28;20460;-81
2021/10/17 07:08:09;;;;;;;34.00;31.77;;;8.40;99.90;;;;;;5029109;28;20453;-81
2021/10/17 07:10:36;;;;;;;35.70;33.20;;;8.30;99.90;;;;;;5030061;28;20813;-81
2021/10/17 07:13:03;;;;;;;35.07;32.47;;;8.30;99.90;;;;;;5030015;28;20452;-81
2021/10/17 07:15:30;;;;;;;34.53;31.93;;;8.30;99.90;;;;;;5029831;28;20445;-83
2021/10/17 07:17:56;;;;;;;29.37;27.23;;;8.60;99.90;;;;;;5029877;28;20436;-81
2021/10/17 07:20:24;;;;;;;30.13;27.60;;;8.90;99.90;;;;;;5029755;28;20464;-82
2021/10/17 07:22:51;;;;;;;29.87;27.07;;;9.30;99.90;;;;;;5029669;28;20445;-84
2021/10/17 07:25:18;;;;;;;30.00;27.63;;;9.90;99.90;;;;;;5032762;28;20445;-90
2021/10/17 07:27:45;;;;;;;27.40;25.30;;;10.40;99.90;;;;;;5031451;28;20442;-88
2021/10/17 07:30:12;;;;;;;24.47;22.77;;;11.20;99.90;;;;;;5031896;28;20485;-87
2021/10/17 07:32:38;;;;;;;23.30;21.70;;;11.80;99.90;;;;;;5031657;28;20445;-85
2021/10/17 07:35:06;;;;;;;23.40;21.73;;;11.90;99.90;;;;;;5034493;28;20449;-92
2021/10/17 07:37:36;;;;;;;25.47;23.57;;;12.10;99.90;;;;;;5034857;28;20445;-94
2021/10/17 07:40:03;;;;;;;26.50;24.50;;;12.40;99.90;;;;;;5034771;28;20480;-82
2021/10/17 07:42:29;;;;;;;25.80;23.80;;;12.40;99.90;;;;;;5029635;28;20449;-87
2021/10/17 07:44:56;;;;;;;24.67;22.50;;;12.40;99.90;;;;;;5029731;28;20932;-80
2021/10/17 07:47:23;;;;;;;25.57;23.63;;;12.50;99.90;;;;;;5029580;28;20527;-78
2021/10/17 07:49:49;;;;;;;24.83;22.97;;;12.70;99.90;;;;;;5029475;28;21025;-82
2021/10/17 07:52:16;;;;;;;24.10;22.20;;;13.40;99.90;;;;;;5029419;28;20437;-80
2021/10/17 07:54:44;;;;;;;22.17;20.77;;;14.10;99.90;;;;;;5029263;28;20444;-79
2021/10/17 07:57:12;;;;;;;24.63;22.83;;;14.60;99.90;;;;;;5029397;28;20444;-78
2021/10/17 07:59:39;;;;;;;23.00;21.30;;;14.30;99.90;;;;;;5029239;28;20958;-78
2021/10/17 08:02:06;;;;;;;23.37;21.77;;;14.50;99.90;;;;;;5029318;28;20831;-77
2021/10/17 08:04:36;;;;;;;23.20;21.40;;;14.50;99.90;;;;;;5029594;28;20881;-76
2021/10/17 08:07:03;;;;;;;23.00;21.40;;;14.40;99.90;;;;;;5026911;28;20445;-76
2021/10/17 08:09:30;;;;;;;25.73;23.80;;;14.10;99.90;;;;;;5029006;28;21002;-76
2021/10/17 08:11:58;;;;;;;23.70;22.20;;;14.40;99.90;;;;;;5028851;28;20506;-76
2021/10/17 08:14:25;;;;;;;22.63;21.03;;;15.10;99.90;;;;;;5027172;28;20441;-76
2021/10/17 08:16:52;;;;;;;24.43;22.53;;;15.40;99.90;;;;;;5028977;28;20453;-76
2021/10/17 08:19:19;;;;;;;22.87;21.07;;;15.20;99.90;;;;;;5031679;28;20442;-76
2021/10/17 08:21:46;;;;;;;22.93;21.17;;;15.40;99.90;;;;;;5032282;28;20468;-75
2021/10/17 08:24:12;;;;;;;23.57;21.77;;;15.30;99.90;;;;;;5031919;28;20475;-76
2021/10/17 08:26:39;;;;;;;22.57;20.90;;;14.80;99.90;;;;;;5032270;28;20446;-76
2021/10/17 08:29:07;;;;;;;22.50;21.00;;;15.40;99.90;;;;;;5032328;28;20994;-76
2021/10/17 08:31:34;;;;;;;22.83;21.33;;;15.70;99.90;;;;;;5032669;28;20472;-77
2021/10/17 08:34:01;;;;;;;22.57;20.97;;;16.40;99.90;;;;;;5033448;28;20459;-76
2021/10/17 08:36:27;;;;;;;22.93;21.37;;;16.20;99.90;;;;;;5033450;28;20445;-76
2021/10/17 08:38:54;;;;;;;24.50;22.80;;;15.30;99.90;;;;;;5033009;28;20476;-76
2021/10/17 08:41:21;;;;;;;23.13;21.43;;;15.00;99.90;;;;;;5033480;28;20453;-76
2021/10/17 08:43:48;;;;;;;25.40;23.50;;;14.90;99.90;;;;;;5033385;28;20460;-75
2021/10/17 08:46:18;;;;;;;24.00;22.30;;;14.80;99.90;;;;;;5033102;28;20452;-74
2021/10/17 08:48:50;;;;;;;22.80;21.23;;;15.00;99.90;;;;;;5032819;28;20461;-76
2021/10/17 08:51:18;;;;;;;23.27;21.60;;;15.40;99.90;;;;;;5033341;28;20491;-76
2021/10/17 08:53:44;;;;;;;23.43;21.93;;;15.70;99.90;;;;;;5032995;28;20460;-75
2021/10/17 08:56:14;;;;;;;24.03;22.43;;;16.50;99.90;;;;;;5033156;28;20846;-76
2021/10/17 08:58:40;;;;;;;24.30;22.70;;;16.70;99.90;;;;;;5032944;28;20544;-74
2021/10/17 09:01:11;;;;;;;24.90;23.10;;;17.40;99.50;;;;;;5033169;28;20821;-76
2021/10/17 09:03:39;;;;;;;24.47;22.90;;;18.60;97.00;;;;;;5033112;28;20485;-76
2021/10/17 09:06:17;;;;;;;21.67;20.27;;;18.70;95.50;;;;;;5032898;28;20449;-76
2021/10/17 09:08:44;;;;;;;24.70;22.83;;;17.50;97.30;;;;;;5032598;28;20453;-76
2021/10/17 09:11:11;;;;;;;24.30;22.70;;;16.70;98.20;;;;;;5032732;28;20449;-76
2021/10/17 09:13:57;;;;;;;24.20;22.50;;;15.80;99.90;;;;;;5033087;28;20460;-76
2021/10/17 09:16:28;;;;;;;24.93;23.10;;;15.80;99.90;;;;;;5032375;28;21010;-76
2021/10/17 09:19:09;;;;;;;25.63;23.83;;;15.50;99.90;;;;;;5032554;28;20465;-76
2021/10/17 09:21:36;;;;;;;25.33;23.43;;;15.80;99.90;;;;;;5032528;28;20485;-76
2021/10/17 09:24:03;;;;;;;24.97;23.17;;;15.60;99.90;;;;;;5032445;28;20449;-77
2021/10/17 09:26:32;;;;;;;25.37;23.67;;;15.70;99.90;;;;;;5032015;28;20453;-76
2021/10/17 09:28:59;;;;;;;27.07;24.97;;;16.00;99.90;;;;;;5031825;28;20483;-76
2021/10/17 09:31:27;;;;;;;26.57;24.63;;;16.10;99.90;;;;;;5031097;28;20437;-75
2021/10/17 09:33:56;;;;;;;26.13;24.13;;;15.80;99.90;;;;;;5031870;28;20448;-76
2021/10/17 09:36:34;;;;;;;26.30;24.20;;;15.50;99.90;;;;;;5031785;28;20867;-76
2021/10/17 09:39:10;;;;;;;27.27;25.17;;;15.00;99.90;;;;;;5030454;28;21072;-75
2021/10/17 09:41:47;;;;;;;28.00;25.70;;;14.70;99.90;;;;;;5030472;28;20850;-74
2021/10/17 09:44:14;;;;;;;29.13;26.43;;;14.20;99.90;;;;;;5029776;28;20544;-74
2021/10/17 09:46:56;;;;;;;29.23;26.20;;;13.90;99.90;;;;;;5031984;28;20793;-75
2021/10/17 09:49:24;;;;;;;29.67;27.03;;;14.10;99.90;;;;;;5030623;28;20994;-75
2021/10/17 09:52:10;;;;;;;29.03;26.53;;;14.20;99.90;;;;;;5029533;28;20449;-74
2021/10/17 09:54:37;;;;;;;29.27;26.77;;;14.30;99.90;;;;;;5030352;28;20515;-75
2021/10/17 09:57:05;;;;;;;31.10;28.23;;;14.60;99.90;;;;;;5031887;28;20681;-74
2021/10/17 09:59:32;;;;;;;32.50;29.67;;;14.30;99.90;;;;;;5029250;28;20962;-75
2021/10/17 10:02:00;;;;;;;33.00;30.00;;;13.90;99.90;;;;;;5031359;28;20480;-74
2021/10/17 10:04:29;;;;;;;32.93;29.97;;;13.80;99.90;;;;;;5031376;28;20444;-75
2021/10/17 10:06:56;;;;;;;32.63;29.83;;;13.90;99.90;;;;;;5031657;28;20453;-75
2021/10/17 10:09:23;;;;;;;30.93;28.10;;;14.20;99.90;;;;;;5031344;28;21052;-76
2021/10/17 10:11:50;;;;;;;29.63;26.93;;;14.90;99.90;;;;;;5028497;28;20448;-75
2021/10/17 10:14:17;;;;;;;29.20;26.83;;;14.90;99.90;;;;;;5031239;28;20775;-75
2021/10/17 10:16:44;;;;;;;30.93;28.23;;;14.80;99.90;;;;;;5030980;28;20818;-75
2021/10/17 10:19:13;;;;;;;28.10;25.90;;;15.10;99.90;;;;;;5028700;28;20441;-74
2021/10/17 10:21:40;;;;;;;27.27;25.13;;;15.40;99.90;;;;;;5031295;28;20547;-75
2021/10/17 10:24:08;;;;;;;30.43;27.80;;;16.10;99.90;;;;;;5030861;28;21046;-75
2021/10/17 10:26:36;;;;;;;29.37;26.93;;;15.80;99.90;;;;;;5031351;28;20452;-75
2021/10/17 10:29:04;;;;;;;28.27;25.90;;;16.20;99.90;;;;;;5031239;28;20445;-74
2021/10/17 10:31:45;;;;;;;29.83;27.33;;;16.30;99.90;;;;;;5028368;28;20441;-75
2021/10/17 10:34:34;;;;;;;29.27;26.67;;;16.40;99.90;;;;;;5028384;28;20953;-75
2021/10/17 10:37:15;;;;;;;27.87;25.53;;;16.40;99.90;;;;;;5031198;28;20811;-75
2021/10/17 10:40:07;;;;;;;27.57;25.40;;;16.00;99.90;;;;;;5032011;28;20491;-74
2021/10/17 10:42:35;;;;;;;28.13;25.53;;;16.00;99.90;;;;;;5030815;28;20433;-74
2021/10/17 10:45:18;;;;;;;27.50;25.20;;;16.10;99.90;;;;;;5030921;28;20437;-74
2021/10/17 10:47:47;;;;;;;26.83;24.73;;;16.50;99.90;;;;;;5029844;28;20834;-75
2021/10/17 10:50:16;;;;;;;27.50;24.87;;;16.40;99.90;;;;;;5028441;28;20813;-75
2021/10/17 10:52:45;;;;;;;25.13;23.13;;;16.40;99.90;;;;;;5030596;28;20483;-74
2021/10/17 10:55:14;;;;;;;25.27;23.07;;;16.50;99.90;;;;;;5028231;28;20642;-74
2021/10/17 10:57:42;;;;;;;28.27;26.00;;;17.20;99.90;;;;;;5030680;28;20449;-75
2021/10/17 11:00:11;;;;;;;30.70;28.30;;;18.00;99.90;;;;;;5030629;28;20445;-75
2021/10/17 11:02:39;;;;;;;28.70;26.40;;;17.10;99.00;;;;;;5029905;28;20487;-77
2021/10/17 11:05:16;;;;;;;29.20;26.80;;;16.90;99.90;;;;;;5029801;28;20444;-78
2021/10/17 11:07:44;;;;;;;28.00;25.80;;;17.20;99.90;;;;;;5027367;28;21317;-73
2021/10/17 11:10:43;;;;;;;28.87;26.33;;;17.60;99.30;;;;;;5029481;28;21024;-73
2021/10/17 11:13:28;;;;;;;30.23;27.43;;;17.60;99.60;;;;;;5029582;28;20449;-75
2021/10/17 11:15:56;;;;;;;27.07;25.00;;;17.00;99.90;;;;;;5030677;28;20445;-75
2021/10/17 11:18:31;;;;;;;27.83;25.50;;;16.80;99.90;;;;;;5030442;28;20483;-75
2021/10/17 11:21:00;;;;;;;30.53;28.03;;;17.00;99.90;;;;;;5030250;28;21014;-75
2021/10/17 11:23:28;;;;;;;28.83;26.53;;;16.20;99.90;;;;;;5030404;28;20448;-75
2021/10/17 11:25:57;;;;;;;29.00;26.50;;;16.40;99.90;;;;;;5030392;28;20452;-75
2021/10/17 11:28:25;;;;;;;28.67;26.37;;;17.00;99.90;;;;;;5030439;28;20444;-75
2021/10/17 11:31:01;;;;;;;26.07;23.87;;;16.90;99.90;;;;;;5030475;28;20492;-75
2021/10/17 11:33:28;;;;;;;27.10;24.90;;;16.80;99.90;;;;;;5030582;28;20859;-75
2021/10/17 11:35:57;;;;;;;27.00;24.80;;;16.80;99.90;;;;;;5030348;28;20445;-75
2021/10/17 11:38:27;;;;;;;29.50;27.13;;;16.30;99.90;;;;;;5029883;28;21006;-74
2021/10/17 11:41:00;;;;;;;27.80;25.63;;;15.60;99.90;;;;;;5035746;28;20459;-75
2021/10/17 11:43:33;;;;;;;26.10;24.00;;;15.90;99.90;;;;;;5039527;28;20446;-75
2021/10/17 11:46:03;;;;;;;28.80;26.23;;;16.50;99.90;;;;;;5036979;28;20477;-75
2021/10/17 11:48:30;;;;;;;26.63;24.53;;;16.10;99.90;;;;;;5038991;28;20440;-75
2021/10/17 11:50:57;;;;;;;27.30;24.93;;;16.00;99.90;;;;;;5044669;28;20491;-75
2021/10/17 11:53:25;;;;;;;27.83;25.37;;;16.00;99.90;;;;;;5051447;28;20467;-74
2021/10/17 11:55:52;;;;;;;26.90;24.70;;;15.30;99.90;;;;;;5054078;28;20809;-74
2021/10/17 11:58:22;;;;;;;26.97;24.80;;;15.20;99.90;;;;;;5054083;28;20486;-74
2021/10/17 12:00:50;;;;;;;26.13;23.77;;;15.00;99.90;;;;;;5054038;28;20476;-74
2021/10/17 12:03:18;;;;;;;26.37;24.17;;;15.10;99.90;;;;;;5040367;28;20452;-75
2021/10/17 12:05:45;;;;;;;28.87;26.17;;;15.40;99.90;;;;;;5033916;28;20544;-75
2021/10/17 12:08:19;;;;;;;31.23;28.57;;;15.80;99.90;;;;;;5033664;28;20453;-74
2021/10/17 12:10:56;;;;;;;31.40;28.57;;;15.80;99.90;;;;;;5033680;28;20575;-75
2021/10/17 12:13:23;;;;;;;30.70;28.00;;;15.50;99.90;;;;;;5033721;28;20456;-75
2021/10/17 12:16:00;;;;;;;30.93;28.30;;;15.20;99.90;;;;;;5033567;28;20449;-74
2021/10/17 12:18:27;;;;;;;30.73;28.13;;;15.40;99.90;;;;;;5033542;28;20800;-75
2021/10/17 12:20:54;;;;;;;29.17;26.57;;;15.60;99.90;;;;;;5033353;28;20468;-75
2021/10/17 12:23:22;;;;;;;29.80;27.37;;;15.70;99.90;;;;;;5033459;28;20460;-75
2021/10/17 12:25:48;;;;;;;28.67;26.17;;;15.50;99.90;;;;;;5033670;28;20939;-75
2021/10/17 12:28:18;;;;;;;31.20;28.70;;;15.50;99.90;;;;;;5033357;28;20457;-74
2021/10/17 12:30:48;;;;;;;27.43;25.03;;;15.40;99.90;;;;;;5033260;28;20534;-74
2021/10/17 12:33:25;;;;;;;27.23;25.03;;;15.50;99.90;;;;;;5032791;28;20522;-76
2021/10/17 12:35:52;;;;;;;26.63;24.23;;;15.60;99.90;;;;;;5033595;28;20440;-75
2021/10/17 12:38:18;;;;;;;27.03;24.60;;;15.50;99.90;;;;;;5033153;28;20495;-75